Time;durP1;ratioP1;P1;durP2;ratioP2;P2;SDS_P1;SDS_P2;PMS_P1;PMS_P2;Temp;Humidity;BMP_temperature;BMP_pressure;BME280_temperature;BME280_humidity;BME280_pressure;Samples;Min_cycle;Max_cycle;Signal;HPM_P1;HPM_P2
2024/03/02 00:00:13;;;;;;;12.82;10.20;;;;;;;;;;5053518;28;20029;-54
2024/03/02 00:02:42;;;;;;;13.10;9.98;;;;;;;;;;5053920;28;20037;-56
2024/03/02 00:05:08;;;;;;;14.80;10.80;;;;;;;;;;5053441;28;20123;-57
2024/03/02 00:07:34;;;;;;;12.50;10.23;;;;;;;;;;5053986;28;20037;-57
2024/03/02 00:10:00;;;;;;;13.77;11.13;;;;;;;;;;5056889;28;20585;-55
2024/03/02 00:12:26;;;;;;;13.20;11.27;;;;;;;;;;5057511;28;20025;-57
2024/03/02 00:14:52;;;;;;;14.98;10.43;;;;;;;;;;5057505;28;20029;-56
2024/03/02 00:17:22;;;;;;;14.18;10.32;;;;;;;;;;5057534;28;20460;-56
2024/03/02 00:19:48;;;;;;;11.82;9.60;;;;;;;;;;5057804;28;20099;-52
2024/03/02 00:22:14;;;;;;;13.27;10.45;;;;;;;;;;5057259;28;20143;-57
2024/03/02 00:24:40;;;;;;;10.85;9.73;;;;;;;;;;5057571;28;20079;-55
2024/03/02 00:27:11;;;;;;;12.70;9.93;;;;;;;;;;5057849;28;20414;-57
2024/03/02 00:29:37;;;;;;;11.82;10.30;;;;;;;;;;5057842;28;20055;-57
2024/03/02 00:32:03;;;;;;;11.23;9.05;;;;;;;;;;5056836;28;20025;-57
2024/03/02 00:34:29;;;;;;;12.55;10.48;;;;;;;;;;5057109;28;20037;-54
2024/03/02 00:36:59;;;;;;;12.55;10.32;;;;;;;;;;5057128;28;20091;-57
2024/03/02 00:39:25;;;;;;;15.50;11.10;;;;;;;;;;5057637;28;20036;-55
2024/03/02 00:41:51;;;;;;;13.35;10.02;;;;;;;;;;5056900;28;20287;-57
2024/03/02 00:44:20;;;;;;;10.38;9.27;;;;;;;;;;5057245;28;20061;-56
2024/03/02 00:46:45;;;;;;;10.90;9.50;;;;;;;;;;5056867;28;20025;-55
2024/03/02 00:49:11;;;;;;;13.90;10.80;;;;;;;;;;5057416;28;20032;-55
2024/03/02 00:51:37;;;;;;;16.23;10.45;;;;;;;;;;5057299;28;20037;-57
2024/03/02 00:54:08;;;;;;;13.63;9.45;;;;;;;;;;5056717;28;20032;-57
2024/03/02 00:56:34;;;;;;;12.95;10.13;;;;;;;;;;5056744;28;20135;-55
2024/03/02 00:59:01;;;;;;;14.55;9.90;;;;;;;;;;5056984;28;20110;-53
2024/03/02 01:01:27;;;;;;;11.63;9.85;;;;;;;;;;5057103;28;20086;-55
2024/03/02 01:03:53;;;;;;;11.02;8.90;;;;;;;;;;5057078;28;20033;-56
2024/03/02 01:06:19;;;;;;;13.73;10.05;;;;;;;;;;5055379;28;20057;-53
2024/03/02 01:08:46;;;;;;;15.52;9.55;;;;;;;;;;5057076;28;20408;-54
2024/03/02 01:11:12;;;;;;;13.68;9.98;;;;;;;;;;5056959;28;20089;-53
2024/03/02 01:13:38;;;;;;;11.30;8.50;;;;;;;;;;5056154;28;20086;-55
2024/03/02 01:16:04;;;;;;;11.13;9.60;;;;;;;;;;5056868;28;20032;-53
2024/03/02 01:18:30;;;;;;;12.20;9.93;;;;;;;;;;5056084;28;20040;-55
2024/03/02 01:20:56;;;;;;;13.65;8.55;;;;;;;;;;5055576;28;20490;-57
2024/03/02 01:23:23;;;;;;;13.32;10.20;;;;;;;;;;5057001;28;20061;-55
2024/03/02 01:25:49;;;;;;;10.65;8.20;;;;;;;;;;5056171;28;20036;-53
2024/03/02 01:28:15;;;;;;;9.25;8.15;;;;;;;;;;5056259;28;20032;-53
2024/03/02 01:30:41;;;;;;;11.20;8.82;;;;;;;;;;5056020;28;20021;-54
2024/03/02 01:33:07;;;;;;;11.52;9.88;;;;;;;;;;5056607;28;20025;-55
2024/03/02 01:35:34;;;;;;;12.25;9.50;;;;;;;;;;5056405;28;20029;-57
2024/03/02 01:38:00;;;;;;;12.27;9.10;;;;;;;;;;5056492;28;20036;-55
2024/03/02 01:40:26;;;;;;;11.13;7.97;;;;;;;;;;5055934;28;20036;-55
2024/03/02 01:42:54;;;;;;;10.98;7.95;;;;;;;;;;5055764;28;20471;-55
2024/03/02 01:45:20;;;;;;;9.73;8.30;;;;;;;;;;5056345;28;20438;-57
2024/03/02 01:47:46;;;;;;;12.57;9.63;;;;;;;;;;5056075;28;20363;-55
2024/03/02 01:50:13;;;;;;;13.18;8.63;;;;;;;;;;5056299;28;20021;-56
2024/03/02 01:52:39;;;;;;;12.35;8.40;;;;;;;;;;5055671;28;20064;-57
2024/03/02 01:55:06;;;;;;;11.68;10.48;;;;;;;;;;5055626;28;20029;-53
2024/03/02 01:57:32;;;;;;;11.45;8.18;;;;;;;;;;5055725;28;20052;-57
2024/03/02 01:59:58;;;;;;;10.43;7.90;;;;;;;;;;5055627;28;20033;-56
2024/03/02 02:02:24;;;;;;;10.02;8.90;;;;;;;;;;5055620;28;20389;-55
2024/03/02 02:04:50;;;;;;;14.32;10.13;;;;;;;;;;5054461;28;20033;-56
2024/03/02 02:07:16;;;;;;;11.05;8.13;;;;;;;;;;5055370;28;20024;-57
2024/03/02 02:09:42;;;;;;;10.43;8.65;;;;;;;;;;5055946;28;20029;-57
2024/03/02 02:12:08;;;;;;;10.80;7.65;;;;;;;;;;5055328;28;20036;-57
2024/03/02 02:14:34;;;;;;;10.68;8.43;;;;;;;;;;5055564;28;20036;-56
2024/03/02 02:17:00;;;;;;;9.23;7.50;;;;;;;;;;5055968;28;20017;-57
2024/03/02 02:19:26;;;;;;;8.60;7.35;;;;;;;;;;5054891;28;20494;-55
2024/03/02 02:21:52;;;;;;;9.93;8.60;;;;;;;;;;5055365;28;20035;-57
2024/03/02 02:24:18;;;;;;;11.45;8.00;;;;;;;;;;5055588;28;20505;-57
2024/03/02 02:26:44;;;;;;;12.80;9.30;;;;;;;;;;5054970;28;20370;-55
2024/03/02 02:29:10;;;;;;;12.13;8.57;;;;;;;;;;5055559;28;20078;-57
2024/03/02 02:31:39;;;;;;;9.73;7.88;;;;;;;;;;5054029;28;20425;-55
2024/03/02 02:34:06;;;;;;;10.05;8.00;;;;;;;;;;5055238;28;20091;-57
2024/03/02 02:36:32;;;;;;;10.80;8.77;;;;;;;;;;5054872;28;20430;-55
2024/03/02 02:38:58;;;;;;;9.20;7.32;;;;;;;;;;5055659;28;20024;-56
2024/03/02 02:41:24;;;;;;;10.70;8.48;;;;;;;;;;5055246;28;20119;-57
2024/03/02 02:43:50;;;;;;;9.90;7.90;;;;;;;;;;5055482;28;20119;-57
2024/03/02 02:46:16;;;;;;;9.48;7.93;;;;;;;;;;5055429;28;20339;-53
2024/03/02 02:48:42;;;;;;;12.13;9.43;;;;;;;;;;5054854;28;20029;-57
2024/03/02 02:51:08;;;;;;;11.35;8.68;;;;;;;;;;5054556;28;20060;-56
2024/03/02 02:53:35;;;;;;;11.02;7.72;;;;;;;;;;5055321;28;20048;-54
2024/03/02 02:56:01;;;;;;;10.20;8.52;;;;;;;;;;5054311;28;20036;-53
2024/03/02 02:58:27;;;;;;;9.32;7.43;;;;;;;;;;5054978;28;20029;-54
2024/03/02 03:00:56;;;;;;;11.95;9.23;;;;;;;;;;5054341;28;20051;-54
2024/03/02 03:03:22;;;;;;;15.93;9.75;;;;;;;;;;5054341;28;20044;-53
2024/03/02 03:05:49;;;;;;;12.27;8.63;;;;;;;;;;5054268;28;20379;-55
2024/03/02 03:08:15;;;;;;;10.35;8.30;;;;;;;;;;5054780;28;20029;-54
2024/03/02 03:10:41;;;;;;;9.10;7.13;;;;;;;;;;5054119;28;20037;-55
2024/03/02 03:13:08;;;;;;;10.05;7.78;;;;;;;;;;5054206;28;20033;-52
2024/03/02 03:15:36;;;;;;;11.02;8.57;;;;;;;;;;5054085;28;20029;-55
2024/03/02 03:18:03;;;;;;;8.90;7.97;;;;;;;;;;5054405;28;20426;-54
2024/03/02 03:20:29;;;;;;;11.82;9.43;;;;;;;;;;5054540;28;20362;-55
2024/03/02 03:22:55;;;;;;;9.85;8.90;;;;;;;;;;5054454;28;20116;-53
2024/03/02 03:25:21;;;;;;;13.57;9.48;;;;;;;;;;5053680;28;20033;-55
2024/03/02 03:27:47;;;;;;;11.10;9.48;;;;;;;;;;5053933;28;20374;-54
2024/03/02 03:30:13;;;;;;;10.25;8.68;;;;;;;;;;5053849;28;20367;-56
2024/03/02 03:32:39;;;;;;;10.88;9.40;;;;;;;;;;5053914;28;20060;-50
2024/03/02 03:35:06;;;;;;;15.75;8.88;;;;;;;;;;5053922;28;20029;-50
2024/03/02 03:37:35;;;;;;;12.05;8.32;;;;;;;;;;5053750;28;20390;-56
2024/03/02 03:40:02;;;;;;;11.70;8.85;;;;;;;;;;5054379;28;20025;-55
2024/03/02 03:42:28;;;;;;;10.93;8.48;;;;;;;;;;5053090;28;20171;-55
2024/03/02 03:44:54;;;;;;;15.88;8.05;;;;;;;;;;5053697;28;20068;-55
2024/03/02 03:47:20;;;;;;;12.48;9.05;;;;;;;;;;5054147;28;20025;-55
2024/03/02 03:49:46;;;;;;;15.50;10.25;;;;;;;;;;5054479;28;20048;-54
2024/03/02 03:52:12;;;;;;;12.38;9.48;;;;;;;;;;5053622;28;20124;-53
2024/03/02 03:54:38;;;;;;;11.98;8.82;;;;;;;;;;5053504;28;20025;-53
2024/03/02 03:57:05;;;;;;;18.38;11.18;;;;;;;;;;5053760;28;20417;-55
2024/03/02 03:59:31;;;;;;;10.27;8.88;;;;;;;;;;5053492;28;20024;-54
2024/03/02 04:01:57;;;;;;;10.40;8.85;;;;;;;;;;5053401;28;20029;-56
2024/03/02 04:04:23;;;;;;;9.50;8.48;;;;;;;;;;5053987;28;20035;-54
2024/03/02 04:06:49;;;;;;;10.13;8.65;;;;;;;;;;5053475;28;20447;-54
2024/03/02 04:09:15;;;;;;;12.27;8.48;;;;;;;;;;5053156;28;20029;-55
2024/03/02 04:11:40;;;;;;;11.30;8.85;;;;;;;;;;5053498;28;20104;-57
2024/03/02 04:14:06;;;;;;;15.57;10.35;;;;;;;;;;5053650;28;20063;-53
2024/03/02 04:16:33;;;;;;;13.70;9.63;;;;;;;;;;5053349;28;20037;-54
2024/03/02 04:18:59;;;;;;;13.43;9.43;;;;;;;;;;5053377;28;20040;-57
2024/03/02 04:21:25;;;;;;;15.15;10.35;;;;;;;;;;5053241;28;20029;-55
2024/03/02 04:23:51;;;;;;;11.60;9.48;;;;;;;;;;5053625;28;20036;-55
2024/03/02 04:26:21;;;;;;;12.25;10.30;;;;;;;;;;5053315;28;20018;-54
2024/03/02 04:28:47;;;;;;;13.82;10.25;;;;;;;;;;5053765;28;20419;-55
2024/03/02 04:31:13;;;;;;;14.10;10.35;;;;;;;;;;5053265;28;20136;-56
2024/03/02 04:33:39;;;;;;;15.75;9.80;;;;;;;;;;5054062;28;20028;-55
2024/03/02 04:36:08;;;;;;;15.07;9.18;;;;;;;;;;5053432;28;20107;-57
2024/03/02 04:38:34;;;;;;;15.00;9.75;;;;;;;;;;5053204;28;20036;-54
2024/03/02 04:41:00;;;;;;;14.27;10.25;;;;;;;;;;5052818;28;20021;-55
2024/03/02 04:43:26;;;;;;;12.88;10.18;;;;;;;;;;5052894;28;20032;-56
2024/03/02 04:45:52;;;;;;;13.05;9.65;;;;;;;;;;5053424;28;20098;-56
2024/03/02 04:48:19;;;;;;;13.05;9.27;;;;;;;;;;5053516;28;20522;-54
2024/03/02 04:50:45;;;;;;;13.88;9.05;;;;;;;;;;5053560;28;20076;-56
2024/03/02 04:53:11;;;;;;;16.55;9.85;;;;;;;;;;5053831;28;20025;-56
2024/03/02 04:58:06;;;;;;;14.35;9.82;;;;;;;;;;5056409;28;20045;-55
2024/03/02 05:00:32;;;;;;;11.25;9.27;;;;;;;;;;5056631;28;20043;-55
2024/03/02 05:02:58;;;;;;;13.07;9.40;;;;;;;;;;5057091;28;20476;-54
2024/03/02 05:05:24;;;;;;;12.98;8.93;;;;;;;;;;5056582;28;20051;-53
2024/03/02 05:07:50;;;;;;;14.23;10.38;;;;;;;;;;5057410;28;20359;-56
2024/03/02 05:10:16;;;;;;;10.73;9.25;;;;;;;;;;5057085;28;20122;-57
2024/03/02 05:13:03;;;;;;;17.65;10.93;;;;;;;;;;5056423;28;20033;-54
2024/03/02 05:15:28;;;;;;;15.30;11.02;;;;;;;;;;5055817;28;20029;-56
2024/03/02 05:17:54;;;;;;;12.43;10.25;;;;;;;;;;5056525;28;20083;-56
2024/03/02 05:20:20;;;;;;;13.05;10.65;;;;;;;;;;5057111;28;20025;-54
2024/03/02 05:22:47;;;;;;;13.57;9.50;;;;;;;;;;5056677;28;20422;-56
2024/03/02 05:25:13;;;;;;;12.07;10.15;;;;;;;;;;5056174;28;20025;-56
2024/03/02 05:27:39;;;;;;;17.23;10.25;;;;;;;;;;5056903;28;20102;-54
2024/03/02 05:30:06;;;;;;;13.43;10.32;;;;;;;;;;5056168;28;20400;-56
2024/03/02 05:32:32;;;;;;;14.52;10.50;;;;;;;;;;5056190;28;20438;-55
2024/03/02 05:34:58;;;;;;;14.40;10.57;;;;;;;;;;5056522;28;20036;-56
2024/03/02 05:37:24;;;;;;;15.60;11.10;;;;;;;;;;5055920;28;20025;-54
2024/03/02 05:39:50;;;;;;;14.57;11.30;;;;;;;;;;5056187;28;20032;-56
2024/03/02 05:42:16;;;;;;;16.00;10.38;;;;;;;;;;5056021;28;20029;-56
2024/03/02 05:44:42;;;;;;;16.25;11.65;;;;;;;;;;5055740;28;20040;-54
2024/03/02 05:47:08;;;;;;;12.70;11.32;;;;;;;;;;5055753;28;20029;-56
2024/03/02 05:49:34;;;;;;;18.58;12.60;;;;;;;;;;5056531;28;20033;-56
2024/03/02 05:52:00;;;;;;;14.35;11.85;;;;;;;;;;5056043;28;20103;-56
2024/03/02 05:54:26;;;;;;;19.27;12.82;;;;;;;;;;5056211;28;20106;-55
2024/03/02 05:56:52;;;;;;;15.88;12.52;;;;;;;;;;5055864;28;20064;-56
2024/03/02 05:59:18;;;;;;;14.27;12.57;;;;;;;;;;5055798;28;20025;-57
2024/03/02 06:01:46;;;;;;;15.45;12.38;;;;;;;;;;5055463;28;20029;-54
2024/03/02 06:04:12;;;;;;;13.70;11.98;;;;;;;;;;5056244;28;20078;-52
2024/03/02 06:06:38;;;;;;;17.17;12.70;;;;;;;;;;5055823;28;20386;-53
2024/03/02 06:09:07;;;;;;;18.60;11.93;;;;;;;;;;5055775;28;20458;-53
2024/03/02 06:11:33;;;;;;;17.20;14.05;;;;;;;;;;5055941;28;20091;-54
2024/03/02 06:13:59;;;;;;;19.58;13.25;;;;;;;;;;5055690;28;20057;-54
2024/03/02 06:16:25;;;;;;;17.80;12.40;;;;;;;;;;5055321;28;20029;-55
2024/03/02 06:18:51;;;;;;;15.35;12.18;;;;;;;;;;5055751;28;20120;-54
2024/03/02 06:21:18;;;;;;;16.55;11.52;;;;;;;;;;5055648;28;20041;-54
2024/03/02 06:23:44;;;;;;;13.55;11.23;;;;;;;;;;5055576;28;20033;-55
2024/03/02 06:26:10;;;;;;;14.10;11.60;;;;;;;;;;5055190;28;20025;-53
2024/03/02 06:28:36;;;;;;;19.35;10.57;;;;;;;;;;5055778;28;20033;-56
2024/03/02 06:31:02;;;;;;;12.02;10.15;;;;;;;;;;5054978;28;20110;-53
2024/03/02 06:33:28;;;;;;;14.65;9.98;;;;;;;;;;5055487;28;20036;-55
2024/03/02 06:35:54;;;;;;;10.68;9.57;;;;;;;;;;5054928;28;20447;-53
2024/03/02 06:38:20;;;;;;;12.43;9.75;;;;;;;;;;5055510;28;20481;-54
2024/03/02 06:40:46;;;;;;;13.60;10.18;;;;;;;;;;5054907;28;20108;-53
2024/03/02 06:43:12;;;;;;;13.07;8.98;;;;;;;;;;5054589;28;20032;-54
2024/03/02 06:45:38;;;;;;;12.60;9.82;;;;;;;;;;5054729;28;20024;-57
2024/03/02 06:48:04;;;;;;;14.77;10.77;;;;;;;;;;5055178;28;20029;-56
2024/03/02 06:50:30;;;;;;;12.75;10.48;;;;;;;;;;5055194;28;20511;-56
2024/03/02 06:52:56;;;;;;;14.60;11.02;;;;;;;;;;5054927;28;20033;-54
2024/03/02 06:55:24;;;;;;;15.98;11.43;;;;;;;;;;5054336;28;20399;-55
2024/03/02 06:57:50;;;;;;;15.00;11.57;;;;;;;;;;5054690;28;20053;-54
2024/03/02 07:00:17;;;;;;;15.15;10.80;;;;;;;;;;5055224;28;20351;-55
2024/03/02 07:02:44;;;;;;;13.45;11.00;;;;;;;;;;5054595;28;20115;-56
2024/03/02 07:05:11;;;;;;;17.77;11.02;;;;;;;;;;5054339;28;20052;-54
2024/03/02 07:07:37;;;;;;;14.63;11.68;;;;;;;;;;5053994;28;20052;-54
2024/03/02 07:10:04;;;;;;;13.43;11.32;;;;;;;;;;5053962;28;20029;-53
2024/03/02 07:12:31;;;;;;;16.63;12.68;;;;;;;;;;5054474;28;20029;-56
2024/03/02 07:17:29;;;;;;;13.43;10.77;;;;;;;;;;5054121;28;20033;-53
2024/03/02 07:19:55;;;;;;;15.18;10.70;;;;;;;;;;5054723;28;20086;-56
2024/03/02 07:22:21;;;;;;;12.57;9.38;;;;;;;;;;5053626;28;20033;-54
2024/03/02 07:24:47;;;;;;;16.35;9.88;;;;;;;;;;5053982;28;20029;-56
2024/03/02 07:27:14;;;;;;;13.13;9.68;;;;;;;;;;5053772;28;20036;-56
2024/03/02 07:29:40;;;;;;;12.43;9.82;;;;;;;;;;5054737;28;20367;-56
2024/03/02 07:32:06;;;;;;;10.80;8.85;;;;;;;;;;5054201;28;20044;-56
2024/03/02 07:34:32;;;;;;;15.05;10.85;;;;;;;;;;5053771;28;20029;-54
2024/03/02 07:36:58;;;;;;;13.18;9.93;;;;;;;;;;5053806;28;20052;-57
2024/03/02 07:39:24;;;;;;;12.05;8.98;;;;;;;;;;5053826;28;20028;-55
2024/03/02 07:41:51;;;;;;;11.27;8.77;;;;;;;;;;5053590;28;20079;-55
2024/03/02 07:44:18;;;;;;;11.95;9.75;;;;;;;;;;5053552;28;20052;-55
2024/03/02 07:46:46;;;;;;;10.85;7.95;;;;;;;;;;5054163;28;20040;-55
2024/03/02 07:49:13;;;;;;;11.00;8.15;;;;;;;;;;5053629;28;20499;-56
2024/03/02 07:51:39;;;;;;;8.93;7.60;;;;;;;;;;5054069;28;20091;-54
2024/03/02 07:54:04;;;;;;;8.25;6.95;;;;;;;;;;5053520;28;20025;-57
2024/03/02 07:56:31;;;;;;;10.32;7.90;;;;;;;;;;5053474;28;20099;-54
2024/03/02 07:59:00;;;;;;;8.88;6.97;;;;;;;;;;5053018;28;20115;-56
2024/03/02 08:01:27;;;;;;;7.47;6.25;;;;;;;;;;5053467;28;20025;-57
2024/03/02 08:03:53;;;;;;;9.35;6.80;;;;;;;;;;5053285;28;20029;-57
2024/03/02 08:06:21;;;;;;;8.15;6.22;;;;;;;;;;5053314;28;20064;-57
2024/03/02 08:08:47;;;;;;;7.88;5.95;;;;;;;;;;5053911;28;20037;-57
2024/03/02 08:11:13;;;;;;;11.50;6.35;;;;;;;;;;5053044;28;20397;-55
2024/03/02 08:13:39;;;;;;;6.93;6.22;;;;;;;;;;5053526;28;20032;-56
2024/03/02 08:16:09;;;;;;;8.63;6.72;;;;;;;;;;5053115;28;20029;-56
2024/03/02 08:18:35;;;;;;;9.05;6.75;;;;;;;;;;5054019;28;20108;-57
2024/03/02 08:21:01;;;;;;;7.22;6.18;;;;;;;;;;5053256;28;20037;-57
2024/03/02 08:23:27;;;;;;;8.13;6.50;;;;;;;;;;5053257;28;20060;-57
2024/03/02 08:25:53;;;;;;;9.77;7.55;;;;;;;;;;5053203;28;20029;-57
2024/03/02 08:28:19;;;;;;;9.32;7.55;;;;;;;;;;5054152;28;20035;-58
2024/03/02 08:30:45;;;;;;;9.93;6.70;;;;;;;;;;5056115;28;20027;-57
2024/03/02 08:33:11;;;;;;;8.30;7.32;;;;;;;;;;5057262;28;20449;-55
2024/03/02 08:35:37;;;;;;;8.18;6.18;;;;;;;;;;5057292;28;20096;-57
2024/03/02 08:38:04;;;;;;;7.82;6.22;;;;;;;;;;5057799;28;20116;-57
2024/03/02 08:40:30;;;;;;;9.68;7.53;;;;;;;;;;5057163;28;20053;-57
2024/03/02 08:42:56;;;;;;;8.85;6.47;;;;;;;;;;5056875;28;20033;-55
2024/03/02 08:45:22;;;;;;;9.73;6.53;;;;;;;;;;5057103;28;20097;-57
2024/03/02 08:47:48;;;;;;;9.48;5.72;;;;;;;;;;5057488;28;20412;-57
2024/03/02 08:50:14;;;;;;;7.00;6.30;;;;;;;;;;5057010;28;20056;-55
2024/03/02 08:52:40;;;;;;;8.32;6.78;;;;;;;;;;5056884;28;20025;-55
2024/03/02 08:55:07;;;;;;;8.60;6.22;;;;;;;;;;5057317;28;20032;-56
2024/03/02 08:57:33;;;;;;;7.53;6.45;;;;;;;;;;5057147;28;20380;-56
2024/03/02 08:59:59;;;;;;;6.88;5.65;;;;;;;;;;5056824;28;20410;-56
2024/03/02 09:02:26;;;;;;;6.50;5.13;;;;;;;;;;5057180;28;20067;-57
2024/03/02 09:04:52;;;;;;;6.82;5.55;;;;;;;;;;5056917;28;20029;-56
2024/03/02 09:07:18;;;;;;;6.60;5.43;;;;;;;;;;5056632;28;20558;-56
2024/03/02 09:09:44;;;;;;;6.65;4.93;;;;;;;;;;5057361;28;20372;-58
2024/03/02 09:12:10;;;;;;;6.80;5.72;;;;;;;;;;5056536;28;20032;-56
2024/03/02 09:14:36;;;;;;;6.78;5.20;;;;;;;;;;5057082;28;20336;-57
2024/03/02 09:17:03;;;;;;;7.63;5.30;;;;;;;;;;5056976;28;20507;-57
2024/03/02 09:19:29;;;;;;;7.13;5.32;;;;;;;;;;5057341;28;20021;-57
2024/03/02 09:21:58;;;;;;;6.80;5.60;;;;;;;;;;5056261;28;20102;-58
2024/03/02 09:24:24;;;;;;;7.18;4.82;;;;;;;;;;5056864;28;20418;-57
2024/03/02 09:26:50;;;;;;;6.75;5.72;;;;;;;;;;5056736;28;20043;-57
2024/03/02 09:29:16;;;;;;;7.13;5.57;;;;;;;;;;5056846;28;20071;-56
2024/03/02 09:31:43;;;;;;;8.60;7.30;;;;;;;;;;5055851;28;20033;-52
2024/03/02 09:34:09;;;;;;;6.93;5.53;;;;;;;;;;5056069;28;20033;-56
2024/03/02 09:36:35;;;;;;;6.38;5.78;;;;;;;;;;5056059;28;20066;-56
2024/03/02 09:39:01;;;;;;;6.32;5.30;;;;;;;;;;5056297;28;20052;-57
2024/03/02 09:41:27;;;;;;;5.93;4.88;;;;;;;;;;5055797;28;20417;-56
2024/03/02 09:43:53;;;;;;;6.63;5.30;;;;;;;;;;5055962;28;20035;-55
2024/03/02 09:46:19;;;;;;;6.70;4.90;;;;;;;;;;5055776;28;20021;-55
2024/03/02 09:48:45;;;;;;;5.10;4.28;;;;;;;;;;5055980;28;20029;-57
2024/03/02 09:51:12;;;;;;;5.82;4.82;;;;;;;;;;5055492;28;20035;-57
2024/03/02 09:53:38;;;;;;;6.32;4.85;;;;;;;;;;5055812;28;20037;-57
2024/03/02 09:56:04;;;;;;;6.28;4.85;;;;;;;;;;5055511;28;20028;-56
2024/03/02 09:58:30;;;;;;;6.10;5.07;;;;;;;;;;5056547;28;20347;-56
2024/03/02 10:00:56;;;;;;;7.22;4.80;;;;;;;;;;5055382;28;20025;-58
2024/03/02 10:03:26;;;;;;;6.10;5.10;;;;;;;;;;5055269;28;20463;-55
2024/03/02 10:05:52;;;;;;;5.13;4.63;;;;;;;;;;5055496;28;20124;-53
2024/03/02 10:08:18;;;;;;;5.25;4.63;;;;;;;;;;5055723;28;20132;-55
2024/03/02 10:10:44;;;;;;;7.22;5.20;;;;;;;;;;5055454;28;20029;-57
2024/03/02 10:13:11;;;;;;;6.45;4.63;;;;;;;;;;5055925;28;20120;-57
2024/03/02 10:15:38;;;;;;;6.25;4.68;;;;;;;;;;5055919;28;20029;-58
2024/03/02 10:18:04;;;;;;;5.13;3.90;;;;;;;;;;5055849;28;20052;-57
2024/03/02 10:20:32;;;;;;;5.72;4.88;;;;;;;;;;5055607;28;20086;-57
2024/03/02 10:23:11;;;;;;;5.00;3.83;;;;;;;;;;5055661;28;20037;-56
2024/03/02 10:25:37;;;;;;;6.93;5.07;;;;;;;;;;5055658;28;20480;-57
2024/03/02 10:28:05;;;;;;;4.65;4.13;;;;;;;;;;5054940;28;20090;-56
2024/03/02 10:30:31;;;;;;;4.95;4.38;;;;;;;;;;5054872;28;20118;-57
2024/03/02 10:32:57;;;;;;;6.35;4.93;;;;;;;;;;5054737;28;20068;-57
2024/03/02 10:35:23;;;;;;;5.75;4.80;;;;;;;;;;5055535;28;20051;-56
2024/03/02 10:37:50;;;;;;;5.53;4.72;;;;;;;;;;5054961;28;20107;-57
2024/03/02 10:40:16;;;;;;;5.80;4.40;;;;;;;;;;5055399;28;20029;-57
2024/03/02 10:42:42;;;;;;;5.38;3.92;;;;;;;;;;5055080;28;20438;-58
2024/03/02 10:45:10;;;;;;;5.38;4.82;;;;;;;;;;5054738;28;20090;-58
2024/03/02 10:47:38;;;;;;;5.05;4.53;;;;;;;;;;5054815;28;20437;-58
2024/03/02 10:50:08;;;;;;;6.38;4.25;;;;;;;;;;5055327;28;20021;-55
2024/03/02 10:52:35;;;;;;;5.03;4.45;;;;;;;;;;5053880;28;20040;-57
2024/03/02 10:55:01;;;;;;;5.05;3.85;;;;;;;;;;5055456;28;20402;-57
2024/03/02 10:57:27;;;;;;;4.82;3.83;;;;;;;;;;5054636;28;20121;-55
2024/03/02 10:59:57;;;;;;;5.18;3.50;;;;;;;;;;5052906;28;20025;-57
2024/03/02 11:02:24;;;;;;;4.30;3.65;;;;;;;;;;5054308;28;20040;-56
2024/03/02 11:04:52;;;;;;;3.80;3.17;;;;;;;;;;5054733;28;20094;-55
2024/03/02 11:07:18;;;;;;;2.78;2.45;;;;;;;;;;5054663;28;20033;-56
2024/03/02 11:10:14;;;;;;;5.22;3.53;;;;;;;;;;5055001;28;20115;-56
2024/03/02 11:12:44;;;;;;;4.15;2.35;;;;;;;;;;5049990;28;20044;-57
2024/03/02 11:15:11;;;;;;;4.85;2.83;;;;;;;;;;5054836;28;20028;-56
2024/03/02 11:17:40;;;;;;;3.15;2.05;;;;;;;;;;5054113;28;20104;-56
2024/03/02 11:20:08;;;;;;;3.72;2.30;;;;;;;;;;5054558;28;20482;-57
2024/03/02 11:22:35;;;;;;;2.70;1.73;;;;;;;;;;5053945;28;20071;-57
2024/03/02 11:25:01;;;;;;;2.55;1.38;;;;;;;;;;5054242;28;20036;-57
2024/03/02 11:27:45;;;;;;;2.97;1.58;;;;;;;;;;5054291;28;20393;-57
2024/03/02 11:30:31;;;;;;;2.67;1.42;;;;;;;;;;5054453;28;20132;-57
2024/03/02 11:32:57;;;;;;;2.58;1.58;;;;;;;;;;5053700;28;20029;-57
2024/03/02 11:35:25;;;;;;;2.33;1.60;;;;;;;;;;5054127;28;20033;-57
2024/03/02 11:37:51;;;;;;;2.38;1.48;;;;;;;;;;5054285;28;20327;-57
2024/03/02 11:40:22;;;;;;;3.00;1.42;;;;;;;;;;5054379;28;20104;-57
2024/03/02 11:42:48;;;;;;;;;;;;;;;;;;5054340;28;20064;-57
2024/03/02 11:45:17;;;;;;;2.35;1.75;;;;;;;;;;5054121;28;20354;-57
2024/03/02 11:47:50;;;;;;;2.88;1.38;;;;;;;;;;5053800;28;20025;-57
2024/03/02 11:50:16;;;;;;;4.57;1.65;;;;;;;;;;5054046;28;20029;-57
2024/03/02 11:52:42;;;;;;;2.78;1.58;;;;;;;;;;5054113;28;20118;-56
2024/03/02 11:55:09;;;;;;;2.13;1.27;;;;;;;;;;5053392;28;20028;-57
2024/03/02 11:57:38;;;;;;;2.20;1.33;;;;;;;;;;5054022;28;20049;-57
2024/03/02 12:00:05;;;;;;;2.85;1.67;;;;;;;;;;5053633;28;20029;-57
2024/03/02 12:02:31;;;;;;;1.98;0.88;;;;;;;;;;5053968;28;20037;-58
2024/03/02 12:04:57;;;;;;;1.45;0.88;;;;;;;;;;5058169;28;20025;-58
2024/03/02 12:07:24;;;;;;;2.13;1.10;;;;;;;;;;5060203;28;20029;-58
2024/03/02 12:09:59;;;;;;;3.33;2.55;;;;;;;;;;5060744;28;20025;-58
2024/03/02 12:12:26;;;;;;;1.42;0.93;;;;;;;;;;5060637;28;20390;-58
2024/03/02 12:14:54;;;;;;;2.78;1.30;;;;;;;;;;5060582;28;20029;-57
2024/03/02 12:17:20;;;;;;;2.00;1.08;;;;;;;;;;5059478;28;20067;-58
2024/03/02 12:19:47;;;;;;;2.03;1.27;;;;;;;;;;5060343;28;20050;-58
2024/03/02 12:22:12;;;;;;;2.65;1.10;;;;;;;;;;5059929;28;20029;-58
2024/03/02 12:24:38;;;;;;;1.83;1.25;;;;;;;;;;5060559;28;20029;-57
2024/03/02 12:27:05;;;;;;;2.83;1.58;;;;;;;;;;5059848;28;20064;-57
2024/03/02 12:29:31;;;;;;;2.17;0.98;;;;;;;;;;5060523;28;20020;-58
2024/03/02 12:31:57;;;;;;;1.55;0.85;;;;;;;;;;5059660;28;20028;-58
2024/03/02 12:34:23;;;;;;;2.13;1.10;;;;;;;;;;5059881;28;20429;-57
2024/03/02 12:36:52;;;;;;;2.63;1.40;;;;;;;;;;5059854;28;20021;-58
2024/03/02 12:39:19;;;;;;;1.88;1.20;;;;;;;;;;5060006;28;20493;-58
2024/03/02 12:41:45;;;;;;;1.95;0.95;;;;;;;;;;5059329;28;20033;-58
2024/03/02 12:44:11;;;;;;;1.48;0.75;;;;;;;;;;5059767;28;20041;-58
2024/03/02 12:46:37;;;;;;;1.50;0.80;;;;;;;;;;5059726;28;20028;-59
2024/03/02 12:49:09;;;;;;;1.67;0.90;;;;;;;;;;5059772;28;20017;-59
2024/03/02 12:51:36;;;;;;;2.03;1.08;;;;;;;;;;5059728;28;20029;-59
2024/03/02 12:54:02;;;;;;;1.10;0.60;;;;;;;;;;5059914;28;20056;-58
2024/03/02 12:56:28;;;;;;;1.83;0.75;;;;;;;;;;5059367;28;20047;-58
2024/03/02 12:58:54;;;;;;;1.48;0.88;;;;;;;;;;5059592;28;20100;-58
2024/03/02 13:01:20;;;;;;;1.05;0.45;;;;;;;;;;5059199;28;20469;-58
2024/03/02 13:03:48;;;;;;;1.38;0.73;;;;;;;;;;5059692;28;20025;-58
2024/03/02 13:06:14;;;;;;;1.20;0.60;;;;;;;;;;5059901;28;20029;-58
2024/03/02 13:08:40;;;;;;;2.97;0.85;;;;;;;;;;5060151;28;20029;-58
2024/03/02 13:11:06;;;;;;;1.90;0.90;;;;;;;;;;5060101;28;20064;-58
2024/03/02 13:13:33;;;;;;;1.48;0.60;;;;;;;;;;5059667;28;20427;-58
2024/03/02 13:15:59;;;;;;;1.90;0.90;;;;;;;;;;5057046;28;20029;-58
2024/03/02 13:18:26;;;;;;;1.40;0.65;;;;;;;;;;5056819;28;20413;-57
2024/03/02 13:20:52;;;;;;;1.83;0.80;;;;;;;;;;5056352;28;20025;-58
2024/03/02 13:23:18;;;;;;;1.40;0.63;;;;;;;;;;5056803;28;20116;-58
2024/03/02 13:25:47;;;;;;;1.73;0.88;;;;;;;;;;5056346;28;20482;-57
2024/03/02 13:28:13;;;;;;;1.58;0.73;;;;;;;;;;5056910;28;20029;-58
2024/03/02 13:30:39;;;;;;;1.50;0.80;;;;;;;;;;5056096;28;20051;-58
2024/03/02 13:33:05;;;;;;;2.08;0.75;;;;;;;;;;5056581;28;20021;-57
2024/03/02 13:35:31;;;;;;;1.50;0.70;;;;;;;;;;5056080;28;20036;-57
2024/03/02 13:37:57;;;;;;;2.78;1.30;;;;;;;;;;5055591;28;20014;-58
2024/03/02 13:40:23;;;;;;;1.65;0.90;;;;;;;;;;5056773;28;20025;-58
2024/03/02 13:42:50;;;;;;;1.52;0.75;;;;;;;;;;5055885;28;20087;-59
2024/03/02 13:45:17;;;;;;;2.20;0.88;;;;;;;;;;5055810;28;20037;-58
2024/03/02 13:47:43;;;;;;;1.25;0.70;;;;;;;;;;5056649;28;20021;-58
2024/03/02 13:50:09;;;;;;;2.08;0.75;;;;;;;;;;5055961;28;20089;-58
2024/03/02 13:52:35;;;;;;;2.30;1.35;;;;;;;;;;5055911;28;20025;-57
2024/03/02 13:55:01;;;;;;;2.65;1.05;;;;;;;;;;5056634;28;20378;-58
2024/03/02 13:57:27;;;;;;;2.03;0.80;;;;;;;;;;5056051;28;20421;-58
2024/03/02 13:59:54;;;;;;;2.05;0.90;;;;;;;;;;5055909;28;20036;-58
2024/03/02 14:02:20;;;;;;;2.10;1.00;;;;;;;;;;5055589;28;20036;-57
2024/03/02 14:04:46;;;;;;;1.77;0.80;;;;;;;;;;5055890;28;20017;-58
2024/03/02 14:07:12;;;;;;;1.33;0.52;;;;;;;;;;5055297;28;20021;-58
2024/03/02 14:09:38;;;;;;;1.45;0.70;;;;;;;;;;5055864;28;20021;-58
2024/03/02 14:12:05;;;;;;;2.10;0.98;;;;;;;;;;5055764;28;20060;-59
2024/03/02 14:14:31;;;;;;;0.82;0.52;;;;;;;;;;5055247;28;20021;-59
2024/03/02 14:17:00;;;;;;;2.65;1.00;;;;;;;;;;5055861;28;20507;-59
2024/03/02 14:19:26;;;;;;;1.50;0.75;;;;;;;;;;5055912;28;20032;-59
2024/03/02 14:21:52;;;;;;;1.67;1.08;;;;;;;;;;5055930;28;20431;-59
2024/03/02 14:24:18;;;;;;;1.98;1.17;;;;;;;;;;5055661;28;20421;-57
2024/03/02 14:26:44;;;;;;;1.27;0.65;;;;;;;;;;5054763;28;20024;-56
2024/03/02 14:29:13;;;;;;;1.42;0.90;;;;;;;;;;5054422;28;20025;-56
2024/03/02 14:31:39;;;;;;;1.02;0.40;;;;;;;;;;5055055;28;20368;-56
2024/03/02 14:34:05;;;;;;;1.52;0.50;;;;;;;;;;5055549;28;20032;-56